• Join FlightAware (Why Join?)
  • Login
  • US Flag 
07:56AM EDT


 

Airport Tracker/Info


-or-


 

Live Flight TrackerFlight Track Log ✈ SWA407 ✈ 15-Apr-2013 ✈ KMCO - KATL

Flight Track Log - Related Links

Times and Time Zones

All times are in EDT time to prevent confusion due to time zone crossing. See the SWA407 flight status page for this flight to view local times or setup timezone preferences in your user account.

Time Position Orientation Groundspeed Altitude Reporting Facility
EDT Latitude Longitude Course Direction KTS MPH feet Rate Location/Type
04:20PM 28.4333 -81.3000 24° Northeast 150 173 600  Level Orlando TRACON
04:21PM 28.4667 -81.2833 24° Northeast 205 236 3,200 2,460 Climbing Orlando TRACON
04:22PM 28.5333 -81.2500 24° Northeast 269 310 5,300 3,180 Climbing Orlando TRACON
04:24PM 28.7136 -81.2758 353° North 303 349 13,800 3,240 Climbing Jacksonville Center
04:25PM 28.8100 -81.2978 349° North 328 377 16,100 2,520 Climbing Jacksonville Center
04:26PM 28.9064 -81.3294 344° North 348 400 18,900 3,000 Climbing Jacksonville Center
04:27PM 29.0089 -81.3611 345° North 360 414 22,100 3,060 Climbing Jacksonville Center
04:28PM 29.1136 -81.3928 345° North 371 427 25,100 2,700 Climbing Jacksonville Center
04:29PM 29.2267 -81.4078 353° North 390 449 27,600 2,700 Climbing Jacksonville Center
04:30PM 29.3461 -81.4561 341° North 396 456 30,500 2,700 Climbing Jacksonville Center
04:31PM 29.4531 -81.4997 340° North 402 463 33,100 2,220 Climbing Jacksonville Center
04:32PM 29.5600 -81.5458 339° North 408 470 35,000 900 Climbing Jacksonville Center
04:33PM 29.6669 -81.5900 340° North 408 470 35,000  Level Jacksonville Center
04:34PM 29.7717 -81.6339 340° North 408 470 35,000  Level Jacksonville Center
04:35PM 29.8767 -81.6781 340° North 403 464 35,000  Level Jacksonville Center
04:36PM 29.9814 -81.7200 341° North 403 464 35,000  Level Jacksonville Center
04:37PM 30.0756 -81.7572 341° North 398 458 35,000  Level Jacksonville Center
04:38PM 30.1847 -81.8017 341° North 398 458 35,000  Level Jacksonville Center
04:39PM 30.2894 -81.8461 340° North 398 458 35,000  Level Jacksonville Center
04:40PM 30.3942 -81.8883 341° North 398 458 35,000  Level Jacksonville Center
04:41PM 30.4989 -81.9331 340° North 398 458 35,000  Level Jacksonville Center
04:42PM 30.6058 -81.9850 337° Northwest 404 465 35,000  Level Jacksonville Center
04:43PM 30.7125 -82.0300 340° North 404 465 35,000  Level Jacksonville Center
04:44PM 30.8150 -82.0725 340° North 404 465 35,000  Level Jacksonville Center
04:45PM 30.9219 -82.1200 339° North 399 459 35,000  Level Jacksonville Center
04:46PM 31.0244 -82.1653 339° North 399 459 35,000  Level Jacksonville Center
04:47PM 31.1311 -82.2131 339° North 399 459 35,000  Level Jacksonville Center
04:48PM 31.2378 -82.2558 341° North 399 459 35,000  Level Jacksonville Center
04:49PM 31.3467 -82.2992 341° North 399 459 35,000  Level Jacksonville Center
04:50PM 31.4639 -82.3469 341° North 399 459 35,000  Level Jacksonville Center
04:52PM 31.6903 -82.4475 339° North 415 478 35,000  Level Atlanta Center
04:53PM 31.7975 -82.4944 340° North 415 478 35,000  Level Atlanta Center
04:54PM 31.9003 -82.5417 339° North 415 478 35,000  Level Atlanta Center
04:55PM 32.0072 -82.5839 341° North 409 471 35,000  Level Atlanta Center
04:56PM 32.1061 -82.6461 332° Northwest 403 464 35,000 -180 Level Atlanta Center
04:57PM 32.1864 -82.7308 318° Northwest 398 458 34,700 -540 Descending Atlanta Center
04:58PM 32.2706 -82.8156 320° Northwest 398 458 34,000 -360 Descending Atlanta Center
04:59PM 32.3528 -82.9028 318° Northwest 398 458 34,000  Level Atlanta Center
05:00PM 32.4350 -82.9831 321° Northwest 393 452 34,000 -60 Level Atlanta Center
05:01PM 32.5172 -83.0708 318° Northwest 393 452 33,900 -1,200 Descending Atlanta Center
05:02PM 32.5992 -83.1561 319° Northwest 393 452 31,600 -2,280 Descending Atlanta Center
05:03PM 32.6769 -83.2367 319° Northwest 393 452 29,400 -2,160 Descending Atlanta Center
05:04PM 32.7506 -83.3153 318° Northwest 379 436 27,300 -2,100 Descending Atlanta Center
05:05PM 32.8261 -83.3961 318° Northwest 368 423 25,200 -2,100 Descending Atlanta Center
05:06PM 32.8953 -83.4697 318° Northwest 355 409 23,200 -2,040 Descending Atlanta Center
05:07PM 32.9667 -83.5461 318° Northwest 349 402 21,200 -2,040 Descending Atlanta Center
05:08PM 33.0358 -83.6175 319° Northwest 334 384 19,200 -1,920 Descending Atlanta Center
05:09PM 33.1008 -83.6892 317° Northwest 329 379 17,400 -1,980 Descending Atlanta Center
05:10PM 33.1678 -83.7583 319° Northwest 312 359 15,300 -1,680 Descending Atlanta Center
05:11PM 33.2333 -83.8333 316° Northwest 306 352 14,000 -780 Descending Atlanta TRACON
05:12PM 33.2833 -83.9167 306° West 318 366 13,800 -660 Descending Atlanta TRACON
05:13PM 33.3500 -84.0000 314° West 303 349 12,700 -900 Descending Atlanta TRACON
05:14PM 33.3833 -84.0667 301° West 310 357 12,000 -360 Descending Atlanta TRACON
05:15PM 33.4500 -84.1667 309° West 309 356 12,000  Level Atlanta TRACON
05:16PM 33.5000 -84.2333 312° West 303 349 12,000 -120 Level Atlanta TRACON
05:17PM 33.5500 -84.3167 306° West 244 281 11,800 -1,020 Descending Atlanta TRACON
05:18PM 33.5500 -84.3833 270° West 244 281 10,000 -1,860 Descending Atlanta TRACON
05:19PM 33.5500 -84.4667 270° West 238 274 8,100 -1,680 Descending Atlanta TRACON
05:20PM 33.5500 -84.5500 270° West 227 261 6,500 -1,680 Descending Atlanta TRACON
05:21PM 33.5500 -84.6167 270° West 230 265 4,800 -1,680 Descending Atlanta TRACON
05:22PM 33.6167 -84.6167 360° North 235 270 3,200 -1,080 Descending Atlanta TRACON
05:23PM 33.6333 -84.5500 73° East 199 229 2,700 -720 Descending Atlanta TRACON
05:24PM 33.6333 -84.5000 90° East 155 178 1,900 -840 Descending Atlanta TRACON
05:25PM 33.6333 -84.4500 90° East 127 146 1,200 -720 Descending Atlanta TRACON
05:27PM 33.6367 -84.4279 64° Northeast  Level Estimated
05:34PM 33.6367 -84.4279 64° Northeast  Level Estimated